createdAt,value
2023-04-11T00:01:07.996Z,2.77
2023-04-11T00:03:34.683Z,3.17
2023-04-11T00:06:01.438Z,2.83
2023-04-11T00:08:27.895Z,3.10
2023-04-11T00:10:54.385Z,2.77
2023-04-11T00:13:20.865Z,3.47
2023-04-11T00:15:47.750Z,2.90
2023-04-11T00:18:14.244Z,2.60
2023-04-11T00:20:40.677Z,2.80
2023-04-11T00:23:08.743Z,3.13
2023-04-11T00:25:37.170Z,2.20
2023-04-11T00:28:03.650Z,3.00
2023-04-11T00:30:30.588Z,2.70
2023-04-11T00:32:57.462Z,2.90
2023-04-11T00:35:23.939Z,2.30
2023-04-11T00:37:55.961Z,2.90
2023-04-11T00:40:22.936Z,2.63
2023-04-11T00:42:49.388Z,2.37
2023-04-11T00:45:16.873Z,2.73
2023-04-11T00:47:43.365Z,2.73
2023-04-11T00:50:13.811Z,2.60
2023-04-11T00:52:40.399Z,2.37
2023-04-11T00:55:07.324Z,2.57
2023-04-11T00:57:33.904Z,2.47
2023-04-11T01:00:01.634Z,2.67
2023-04-11T01:02:28.561Z,2.97
2023-04-11T01:04:55.596Z,2.97
2023-04-11T01:07:22.953Z,2.70
2023-04-11T01:09:49.673Z,2.53
2023-04-11T01:12:16.306Z,2.77
2023-04-11T01:14:42.800Z,2.40
2023-04-11T01:17:12.747Z,2.40
2023-04-11T01:22:24.734Z,2.30
2023-04-11T01:24:52.309Z,2.03
2023-04-11T01:27:19.940Z,1.70
2023-04-11T01:30:05.751Z,1.93
2023-04-11T01:32:37.440Z,1.90
2023-04-11T01:35:05.125Z,2.23
2023-04-11T01:37:31.799Z,2.00
2023-04-11T01:39:58.572Z,2.10
2023-04-11T01:42:25.712Z,2.00
2023-04-11T01:44:52.428Z,1.87
2023-04-11T01:47:18.883Z,1.90
2023-04-11T01:49:45.489Z,1.83
2023-04-11T01:52:11.995Z,1.70
2023-04-11T01:54:38.412Z,1.67
2023-04-11T01:57:06.576Z,2.00
2023-04-11T01:59:33.058Z,1.73
2023-04-11T02:02:00.506Z,1.80
2023-04-11T02:04:27.160Z,1.90
2023-04-11T02:06:55.572Z,1.50
2023-04-11T02:09:21.993Z,1.50
2023-04-11T02:11:48.440Z,1.60
2023-04-11T02:14:16.345Z,1.73
2023-04-11T02:16:50.726Z,1.60
2023-04-11T02:19:17.865Z,2.53
2023-04-11T02:21:45.884Z,1.80
2023-04-11T02:24:13.099Z,1.60
2023-04-11T02:26:41.131Z,1.30
2023-04-11T02:31:54.968Z,1.50
2023-04-11T02:34:21.701Z,1.20
2023-04-11T02:36:49.024Z,1.23
2023-04-11T02:39:16.204Z,1.43
2023-04-11T02:41:42.885Z,1.00
2023-04-11T02:44:11.420Z,1.00
2023-04-11T02:46:39.777Z,1.00
2023-04-11T02:49:08.539Z,0.80
2023-04-11T02:51:35.658Z,0.90
2023-04-11T02:54:02.145Z,1.17
2023-04-11T02:56:31.000Z,1.20
2023-04-11T02:58:58.664Z,1.27
2023-04-11T03:01:28.095Z,0.70
2023-04-11T03:03:55.469Z,0.70
2023-04-11T03:06:26.987Z,0.80
2023-04-11T03:08:58.859Z,0.80
2023-04-11T03:11:26.070Z,0.90
2023-04-11T03:13:52.784Z,0.90
2023-04-11T03:16:19.873Z,0.83
2023-04-11T03:18:47.377Z,1.03
2023-04-11T03:21:13.877Z,0.90
2023-04-11T03:23:44.050Z,0.80
2023-04-11T03:26:13.041Z,1.30
2023-04-11T03:28:42.153Z,1.13
2023-04-11T03:31:11.658Z,0.80
2023-04-11T03:33:39.147Z,0.77
2023-04-11T03:36:06.892Z,1.00
2023-04-11T03:38:33.836Z,0.70
2023-04-11T03:41:00.614Z,0.90
2023-04-11T03:43:27.312Z,0.90
2023-04-11T03:45:54.006Z,0.80
2023-04-11T03:48:34.231Z,1.00
2023-04-11T03:51:05.450Z,0.90
2023-04-11T03:53:39.580Z,0.80
2023-04-11T03:56:24.074Z,0.67
2023-04-11T03:58:51.913Z,1.30
2023-04-11T04:01:21.329Z,0.83
2023-04-11T04:03:51.178Z,0.90
2023-04-11T04:06:18.410Z,1.00
2023-04-11T04:08:47.264Z,0.90
2023-04-11T04:11:15.406Z,1.07
2023-04-11T04:13:42.968Z,1.20
2023-04-11T04:16:13.089Z,1.20
2023-04-11T04:18:43.319Z,1.37
2023-04-11T04:21:11.334Z,0.93
2023-04-11T04:23:39.179Z,1.57
2023-04-11T04:26:25.010Z,0.70
2023-04-11T04:29:06.505Z,0.90
2023-04-11T04:31:50.469Z,0.90
2023-04-11T04:34:21.669Z,0.90
2023-04-11T04:36:49.508Z,1.33
2023-04-11T04:39:25.323Z,1.13
2023-04-11T04:41:58.181Z,1.00
2023-04-11T04:44:27.783Z,1.27
2023-04-11T04:46:57.444Z,1.27
2023-04-11T04:49:27.115Z,1.07
2023-04-11T04:51:53.779Z,1.03
2023-04-11T04:54:20.534Z,1.00
2023-04-11T04:56:48.213Z,1.40
2023-04-11T04:59:16.495Z,1.40
2023-04-11T05:01:50.840Z,1.03
2023-04-11T05:04:25.622Z,1.50
2023-04-11T05:06:55.964Z,0.90
2023-04-11T05:09:22.893Z,1.40
2023-04-11T05:11:51.964Z,1.07
2023-04-11T05:14:20.733Z,1.20
2023-04-11T05:16:47.258Z,1.20
2023-04-11T05:19:14.074Z,1.33
2023-04-11T05:21:45.114Z,1.43
2023-04-11T05:24:31.023Z,1.97
2023-04-11T05:27:00.676Z,1.50
2023-04-11T05:29:27.520Z,1.30
2023-04-11T05:31:54.021Z,1.40
2023-04-11T05:34:20.642Z,1.60
2023-04-11T05:36:50.912Z,1.63
2023-04-11T05:39:17.565Z,2.00
2023-04-11T05:41:44.016Z,1.90
2023-04-11T05:44:10.501Z,1.73
2023-04-11T05:46:37.804Z,2.10
2023-04-11T05:49:04.330Z,1.77
2023-04-11T05:51:30.830Z,1.60
2023-04-11T05:53:57.895Z,1.70
2023-04-11T05:56:24.744Z,1.90
2023-04-11T05:58:52.240Z,1.90
2023-04-11T06:01:20.207Z,1.47
2023-04-11T06:03:47.102Z,1.60
2023-04-11T06:08:59.242Z,1.40
2023-04-11T06:11:28.441Z,2.63
2023-04-11T06:13:55.204Z,2.03
2023-04-11T06:16:22.016Z,1.80
2023-04-11T06:18:49.238Z,2.30
2023-04-11T06:21:15.734Z,2.17
2023-04-11T06:23:42.226Z,2.50
2023-04-11T06:26:11.540Z,2.00
2023-04-11T06:28:38.241Z,2.10
2023-04-11T06:31:05.513Z,2.10
2023-04-11T06:33:32.202Z,1.90
2023-04-11T06:35:58.903Z,2.37
2023-04-11T06:38:26.365Z,2.03
2023-04-11T06:40:54.566Z,2.13
2023-04-11T06:43:21.034Z,2.73
2023-04-11T06:45:47.748Z,2.30
2023-04-11T06:48:14.180Z,1.53
2023-04-11T06:50:41.085Z,2.47
2023-04-11T06:53:07.549Z,2.67
2023-04-11T06:55:33.996Z,2.43
2023-04-11T06:58:01.141Z,2.57
2023-04-11T07:00:27.968Z,2.33
2023-04-11T07:02:54.653Z,2.63
2023-04-11T07:05:21.480Z,2.73
2023-04-11T07:07:47.989Z,2.37
2023-04-11T07:10:14.516Z,2.40
2023-04-11T07:12:41.007Z,2.70
2023-04-11T07:15:07.835Z,2.20
2023-04-11T07:17:34.325Z,2.67
2023-04-11T07:20:00.948Z,2.33
2023-04-11T07:22:29.343Z,2.50
2023-04-11T07:24:57.364Z,2.50
2023-04-11T07:27:24.511Z,2.17
2023-04-11T07:29:51.099Z,2.57
2023-04-11T07:32:17.580Z,2.47
2023-04-11T07:34:44.038Z,2.37
2023-04-11T07:37:11.074Z,2.77
2023-04-11T07:39:37.898Z,3.37
2023-04-11T07:42:04.555Z,3.10
2023-04-11T07:44:30.979Z,2.30
2023-04-11T07:46:58.220Z,2.60
2023-04-11T07:49:24.773Z,2.63
2023-04-11T07:51:51.331Z,2.70
2023-04-11T07:54:17.789Z,2.60
2023-04-11T07:56:44.461Z,2.90
2023-04-11T07:59:14.248Z,2.73
2023-04-11T08:01:40.707Z,2.00
2023-04-11T08:04:07.650Z,2.93
2023-04-11T08:06:34.377Z,2.33
2023-04-11T08:09:01.038Z,2.40
2023-04-11T08:11:27.588Z,2.63
2023-04-11T08:13:54.210Z,2.53
2023-04-11T08:16:21.158Z,2.80
2023-04-11T08:18:47.968Z,2.43
2023-04-11T08:21:15.018Z,2.80
2023-04-11T08:23:42.271Z,2.07
2023-04-11T08:26:09.651Z,3.43
2023-04-11T08:28:36.318Z,2.93
2023-04-11T08:31:04.154Z,2.50
2023-04-11T08:33:31.214Z,2.63
2023-04-11T08:35:57.788Z,3.00
2023-04-11T08:38:24.370Z,2.77
2023-04-11T08:40:51.413Z,3.73
2023-04-11T08:43:18.427Z,3.00
2023-04-11T08:45:44.882Z,4.63
2023-04-11T08:48:14.633Z,3.83
2023-04-11T08:50:42.227Z,3.60
2023-04-11T08:53:08.861Z,3.00
2023-04-11T08:55:36.268Z,2.53
2023-04-11T08:58:03.768Z,2.73
2023-04-11T09:00:32.342Z,3.00
2023-04-11T09:03:04.382Z,2.00
2023-04-11T09:05:38.711Z,2.40
2023-04-11T09:08:06.760Z,1.80
2023-04-11T09:10:33.890Z,2.00
2023-04-11T09:13:00.882Z,2.30
2023-04-11T09:15:28.421Z,1.97
2023-04-11T09:17:58.901Z,3.80
2023-04-11T09:20:27.171Z,5.13
2023-04-11T09:22:53.817Z,4.00
2023-04-11T09:25:21.055Z,2.13
2023-04-11T09:27:47.744Z,1.47
2023-04-11T09:30:20.083Z,1.23
2023-04-11T09:32:48.621Z,1.47
2023-04-11T09:35:20.327Z,2.00
2023-04-11T09:37:50.995Z,2.73
2023-04-11T09:40:18.619Z,1.20
2023-04-11T09:42:46.680Z,1.30
2023-04-11T09:45:20.530Z,1.27
2023-04-11T09:47:47.604Z,1.77
2023-04-11T09:50:14.891Z,1.27
2023-04-11T09:52:43.158Z,1.50
2023-04-11T09:55:13.614Z,1.70
2023-04-11T09:57:41.137Z,1.23
2023-04-11T10:00:17.068Z,1.27
2023-04-11T10:02:44.907Z,1.23
2023-04-11T10:05:13.133Z,1.30
2023-04-11T10:07:46.207Z,1.40
2023-04-11T10:10:17.013Z,1.40
2023-04-11T10:12:43.714Z,1.27
2023-04-11T10:15:10.649Z,1.40
2023-04-11T10:17:37.943Z,1.20
2023-04-11T10:20:24.630Z,1.40
2023-04-11T10:22:51.295Z,1.87
2023-04-11T10:25:18.710Z,1.30
2023-04-11T10:27:46.801Z,1.30
2023-04-11T10:30:13.515Z,1.20
2023-04-11T10:32:41.692Z,1.07
2023-04-11T10:35:17.609Z,1.67
2023-04-11T10:37:44.047Z,1.57
2023-04-11T10:40:10.964Z,1.00
2023-04-11T10:42:42.279Z,1.13
2023-04-11T10:45:25.754Z,1.63
2023-04-11T10:48:07.657Z,1.50
2023-04-11T10:50:37.497Z,1.47
2023-04-11T10:53:04.953Z,1.30
2023-04-11T10:55:41.156Z,1.27
2023-04-11T10:58:08.623Z,1.50
2023-04-11T11:00:54.060Z,1.20
2023-04-11T11:03:21.960Z,1.00
2023-04-11T11:05:57.259Z,1.30
2023-04-11T11:08:27.174Z,1.10
2023-04-11T11:10:54.200Z,1.13
2023-04-11T11:13:21.645Z,1.10
2023-04-11T11:15:49.017Z,1.10
2023-04-11T11:18:16.168Z,1.27
2023-04-11T11:20:42.602Z,0.83
2023-04-11T11:23:10.042Z,0.80
2023-04-11T11:25:36.564Z,0.90
2023-04-11T11:28:04.529Z,1.20
2023-04-11T11:30:31.698Z,1.00
2023-04-11T11:32:58.242Z,1.20
2023-04-11T11:35:25.275Z,0.87
2023-04-11T11:37:54.035Z,1.03
2023-04-11T11:40:24.570Z,0.70
2023-04-11T11:42:51.569Z,0.80
2023-04-11T11:45:19.365Z,1.00
2023-04-11T11:47:46.796Z,1.27
2023-04-11T11:50:27.198Z,0.90
2023-04-11T11:52:53.813Z,1.20
2023-04-11T11:55:20.240Z,1.17
2023-04-11T11:57:47.532Z,1.10
2023-04-11T12:00:16.276Z,1.10
2023-04-11T12:02:44.135Z,1.30
2023-04-11T12:05:11.386Z,1.10
2023-04-11T12:07:38.584Z,0.87
2023-04-11T12:10:11.586Z,1.20
2023-04-11T12:12:39.911Z,0.80
2023-04-11T12:15:13.455Z,1.67
2023-04-11T12:17:40.724Z,0.90
2023-04-11T12:20:08.157Z,0.80
2023-04-11T12:22:35.309Z,0.70
2023-04-11T12:25:12.342Z,0.80
2023-04-11T12:27:39.508Z,0.70
2023-04-11T12:30:06.428Z,0.70
2023-04-11T12:32:34.485Z,0.90
2023-04-11T12:35:01.844Z,0.73
2023-04-11T12:37:28.523Z,1.10
2023-04-11T12:39:54.991Z,0.90
2023-04-11T12:42:26.521Z,0.80
2023-04-11T12:44:53.734Z,1.07
2023-04-11T12:47:20.648Z,0.90
2023-04-11T12:49:47.133Z,1.63
2023-04-11T12:52:13.671Z,1.10
2023-04-11T12:54:40.273Z,1.33
2023-04-11T12:57:07.573Z,1.37
2023-04-11T12:59:34.043Z,1.33
2023-04-11T13:02:01.795Z,1.50
2023-04-11T13:04:28.559Z,0.87
2023-04-11T13:06:55.409Z,0.83
2023-04-11T13:09:21.878Z,0.90
2023-04-11T13:11:48.710Z,0.97
2023-04-11T13:14:15.395Z,0.90
2023-04-11T13:16:43.284Z,0.77
2023-04-11T13:19:09.872Z,0.90
2023-04-11T13:21:37.277Z,1.20
2023-04-11T13:24:03.684Z,0.87
2023-04-11T13:26:30.152Z,0.90
2023-04-11T13:28:56.666Z,0.90
2023-04-11T13:31:26.656Z,0.90
2023-04-11T13:33:53.213Z,0.90
2023-04-11T13:36:19.751Z,0.90
2023-04-11T13:38:46.846Z,1.10
2023-04-11T13:41:14.713Z,1.10
2023-04-11T13:43:41.558Z,1.10
2023-04-11T13:46:08.260Z,1.07
2023-04-11T13:48:35.134Z,1.10
2023-04-11T13:51:01.766Z,0.90
2023-04-11T13:53:28.411Z,0.80
2023-04-11T13:55:55.710Z,0.97
2023-04-11T13:58:22.413Z,0.70
2023-04-11T14:00:51.958Z,0.87
2023-04-11T14:03:18.614Z,0.70
2023-04-11T14:05:45.341Z,0.50
2023-04-11T14:08:12.211Z,0.70
2023-04-11T14:10:38.677Z,0.60
2023-04-11T14:13:05.493Z,0.63
2023-04-11T14:15:32.216Z,0.60
2023-04-11T14:17:59.038Z,0.60
2023-04-11T14:20:25.892Z,0.60
2023-04-11T14:22:52.442Z,0.70
2023-04-11T14:25:19.207Z,0.83
2023-04-11T14:27:46.248Z,0.80
2023-04-11T14:30:13.198Z,0.70
2023-04-11T14:32:40.455Z,0.70
2023-04-11T14:35:08.483Z,0.57
2023-04-11T14:37:35.548Z,0.80
2023-04-11T14:40:05.453Z,0.60
2023-04-11T14:42:31.962Z,1.10
2023-04-11T14:44:58.905Z,0.80
2023-04-11T14:47:26.357Z,0.80
2023-04-11T14:49:52.974Z,0.63
2023-04-11T14:52:19.626Z,0.80
2023-04-11T14:54:46.269Z,0.70
2023-04-11T14:57:12.805Z,1.03
2023-04-11T14:59:39.693Z,0.70
2023-04-11T15:02:06.264Z,0.80
2023-04-11T15:04:32.978Z,0.70
2023-04-11T15:06:59.501Z,0.60
2023-04-11T15:09:26.183Z,0.90
2023-04-11T15:11:52.754Z,2.43
2023-04-11T15:14:19.257Z,0.90
2023-04-11T15:16:45.847Z,1.30
2023-04-11T15:19:12.646Z,0.80
2023-04-11T15:21:39.115Z,0.90
2023-04-11T15:24:07.515Z,1.20
2023-04-11T15:26:34.094Z,1.00
2023-04-11T15:29:00.781Z,1.57
2023-04-11T15:31:28.295Z,0.90
2023-04-11T15:33:57.052Z,1.20
2023-04-11T15:36:24.162Z,1.10
2023-04-11T15:38:50.872Z,1.07
2023-04-11T15:41:17.533Z,1.60
2023-04-11T15:43:43.981Z,1.20
2023-04-11T15:46:10.429Z,1.20
2023-04-11T15:48:37.095Z,1.20
2023-04-11T15:51:10.290Z,0.90
2023-04-11T15:53:36.987Z,1.30
2023-04-11T15:56:04.134Z,1.00
2023-04-11T15:58:33.665Z,1.60
2023-04-11T16:01:03.287Z,1.53
2023-04-11T16:03:32.388Z,1.00
2023-04-11T16:05:59.629Z,1.10
2023-04-11T16:08:29.102Z,0.80
2023-04-11T16:10:55.963Z,0.97
2023-04-11T16:13:22.459Z,1.13
2023-04-11T16:15:48.926Z,0.90
2023-04-11T16:18:15.574Z,0.80
2023-04-11T16:20:41.998Z,1.07
2023-04-11T16:23:08.457Z,1.30
2023-04-11T16:25:34.995Z,1.27
2023-04-11T16:28:01.910Z,1.13
2023-04-11T16:30:28.388Z,1.00
2023-04-11T16:32:54.869Z,1.10
2023-04-11T16:35:21.291Z,1.10
2023-04-11T16:37:47.707Z,0.70
2023-04-11T16:40:14.530Z,0.80
2023-04-11T16:42:41.348Z,0.90
2023-04-11T16:45:09.048Z,1.07
2023-04-11T16:47:36.177Z,0.80
2023-04-11T16:50:03.994Z,0.90
2023-04-11T16:52:31.072Z,0.90
2023-04-11T16:54:57.707Z,1.03
2023-04-11T16:57:24.873Z,1.13
2023-04-11T16:59:51.539Z,0.70
2023-04-11T17:02:18.097Z,0.77
2023-04-11T17:04:44.920Z,0.80
2023-04-11T17:07:11.501Z,0.80
2023-04-11T17:09:38.442Z,1.20
2023-04-11T17:12:05.294Z,0.90
2023-04-11T17:14:34.104Z,0.80
2023-04-11T17:17:00.637Z,0.70
2023-04-11T17:19:27.109Z,0.83
2023-04-11T17:21:53.579Z,0.73
2023-04-11T17:24:20.026Z,0.80
2023-04-11T17:26:46.519Z,1.00
2023-04-11T17:29:13.206Z,0.97
2023-04-11T17:31:40.964Z,0.60
2023-04-11T17:34:07.589Z,1.23
2023-04-11T17:36:35.474Z,1.00
2023-04-11T17:39:02.016Z,0.70
2023-04-11T17:41:28.516Z,0.90
2023-04-11T17:43:56.289Z,0.90
2023-04-11T17:46:23.001Z,0.73
2023-04-11T17:48:49.870Z,0.70
2023-04-11T17:51:16.407Z,0.70
2023-04-11T17:53:42.952Z,0.60
2023-04-11T17:56:09.463Z,0.90
2023-04-11T17:58:37.047Z,0.60
2023-04-11T18:01:04.458Z,1.00
2023-04-11T18:03:34.767Z,0.80
2023-04-11T18:06:01.690Z,1.63
2023-04-11T18:08:43.231Z,0.80
2023-04-11T18:11:14.732Z,1.60
2023-04-11T18:13:44.448Z,1.60
2023-04-11T18:16:11.746Z,1.17
2023-04-11T18:18:38.552Z,1.37
2023-04-11T18:21:07.609Z,1.63
2023-04-11T18:23:34.666Z,2.00
2023-04-11T18:26:01.179Z,1.90
2023-04-11T18:28:28.007Z,1.80
2023-04-11T18:30:54.969Z,1.80
2023-04-11T18:33:21.531Z,2.47
2023-04-11T18:35:48.086Z,3.57
2023-04-11T18:38:14.531Z,3.17
2023-04-11T18:40:41.181Z,2.80
2023-04-11T18:43:08.076Z,2.27
2023-04-11T18:45:35.248Z,2.40
2023-04-11T18:48:02.479Z,3.00
2023-04-11T18:50:30.629Z,3.17
2023-04-11T18:53:02.006Z,3.80
2023-04-11T18:55:31.995Z,3.23
2023-04-11T18:58:00.364Z,3.50
2023-04-11T19:00:29.361Z,3.73
2023-04-11T19:02:56.789Z,3.83
2023-04-11T19:05:25.129Z,3.63
2023-04-11T19:07:52.301Z,4.67
2023-04-11T19:10:19.047Z,5.30
2023-04-11T19:12:45.969Z,5.30
2023-04-11T19:15:12.846Z,4.93
2023-04-11T19:17:39.568Z,5.13
2023-04-11T19:20:12.890Z,4.60
2023-04-11T19:22:40.733Z,5.37
2023-04-11T19:25:09.932Z,3.97
2023-04-11T19:27:40.067Z,4.07
2023-04-11T19:30:09.218Z,4.37
2023-04-11T19:32:38.506Z,5.23
2023-04-11T19:35:05.632Z,5.67
2023-04-11T19:37:33.544Z,5.60
2023-04-11T19:40:01.379Z,4.83
2023-04-11T19:42:30.590Z,4.23
2023-04-11T19:44:57.147Z,5.53
2023-04-11T19:47:24.767Z,4.30
2023-04-11T19:49:52.040Z,5.17
2023-04-11T19:52:18.715Z,4.97
2023-04-11T19:54:46.129Z,4.50
2023-04-11T19:57:13.939Z,6.37
2023-04-11T19:59:40.769Z,7.93
2023-04-11T20:02:07.934Z,6.07
2023-04-11T20:04:35.130Z,5.30
2023-04-11T20:07:03.312Z,5.10
2023-04-11T20:09:29.907Z,3.57
2023-04-11T20:11:57.881Z,3.03
2023-04-11T20:14:24.455Z,4.10
2023-04-11T20:16:52.205Z,6.27
2023-04-11T20:19:21.086Z,5.07
2023-04-11T20:21:47.937Z,4.57
2023-04-11T20:24:15.334Z,4.20
2023-04-11T20:26:41.815Z,3.73
2023-04-11T20:29:08.784Z,3.40
2023-04-11T20:31:35.512Z,3.90
2023-04-11T20:34:03.145Z,3.33
2023-04-11T20:36:29.648Z,3.50
2023-04-11T20:38:58.311Z,3.60
2023-04-11T20:41:27.237Z,2.80
2023-04-11T20:43:54.203Z,2.80
2023-04-11T20:46:21.605Z,2.60
2023-04-11T20:48:49.795Z,3.20
2023-04-11T20:51:17.510Z,2.57
2023-04-11T20:53:44.400Z,3.20
2023-04-11T20:56:11.764Z,3.07
2023-04-11T20:58:39.162Z,3.60
2023-04-11T21:01:05.679Z,3.50
2023-04-11T21:03:37.175Z,3.50
2023-04-11T21:06:07.670Z,3.40
2023-04-11T21:08:37.214Z,2.20
2023-04-11T21:11:04.829Z,2.10
2023-04-11T21:13:31.377Z,2.17
2023-04-11T21:15:58.385Z,2.00
2023-04-11T21:18:25.021Z,2.10
2023-04-11T21:20:51.456Z,2.37
2023-04-11T21:23:18.144Z,1.90
2023-04-11T21:25:44.604Z,1.90
2023-04-11T21:28:11.361Z,2.20
2023-04-11T21:30:39.357Z,2.10
2023-04-11T21:33:06.009Z,1.87
2023-04-11T21:35:32.508Z,2.40
2023-04-11T21:37:59.045Z,1.70
2023-04-11T21:40:25.553Z,1.53
2023-04-11T21:42:51.991Z,1.47
2023-04-11T21:45:18.542Z,1.83
2023-04-11T21:47:45.076Z,1.43
2023-04-11T21:50:11.704Z,1.73
2023-04-11T21:52:38.220Z,1.63
2023-04-11T21:55:06.544Z,1.57
2023-04-11T21:57:35.257Z,1.80
2023-04-11T22:00:01.988Z,2.30
2023-04-11T22:02:38.817Z,1.67
2023-04-11T22:05:07.060Z,2.30
2023-04-11T22:07:47.455Z,2.20
2023-04-11T22:10:14.278Z,1.50
2023-04-11T22:12:41.744Z,2.10
2023-04-11T22:15:08.616Z,1.97
2023-04-11T22:17:37.154Z,2.20
2023-04-11T22:20:06.810Z,1.80
2023-04-11T22:22:33.415Z,2.07
2023-04-11T22:24:59.899Z,2.30
2023-04-11T22:27:27.123Z,1.97
2023-04-11T22:29:56.048Z,2.27
2023-04-11T22:32:23.233Z,2.63
2023-04-11T22:34:49.739Z,2.00
2023-04-11T22:37:16.253Z,1.90
2023-04-11T22:39:42.792Z,1.93
2023-04-11T22:42:10.803Z,1.97
2023-04-11T22:44:37.307Z,1.90
2023-04-11T22:47:05.995Z,1.93
2023-04-11T22:49:33.547Z,2.20
2023-04-11T22:52:01.982Z,2.00
2023-04-11T22:54:28.613Z,1.87
2023-04-11T22:56:57.198Z,1.77
2023-04-11T22:59:24.968Z,1.67
2023-04-11T23:01:52.469Z,2.10
2023-04-11T23:04:19.371Z,1.60
2023-04-11T23:06:48.601Z,1.57
2023-04-11T23:09:15.217Z,2.10
2023-04-11T23:11:41.882Z,1.50
2023-04-11T23:14:08.395Z,1.60
2023-04-11T23:16:35.048Z,1.40
2023-04-11T23:19:01.556Z,1.60
2023-04-11T23:21:29.441Z,1.40
2023-04-11T23:23:56.486Z,1.73
2023-04-11T23:26:24.210Z,1.33
2023-04-11T23:28:50.722Z,1.70
2023-04-11T23:31:20.217Z,1.60
2023-04-11T23:33:46.864Z,2.27
2023-04-11T23:36:13.675Z,1.50
2023-04-11T23:38:40.479Z,1.37
2023-04-11T23:41:07.069Z,1.50
2023-04-11T23:43:34.141Z,1.50
2023-04-11T23:46:01.021Z,1.47
2023-04-11T23:48:30.494Z,1.40
2023-04-11T23:50:57.952Z,1.40
2023-04-11T23:53:24.740Z,1.40
2023-04-11T23:55:52.126Z,1.50
2023-04-11T23:58:18.650Z,1.67
